EDT,Max TemperatureF,Mean TemperatureF,Min TemperatureF,Max Dew PointF,MeanDew PointF,Min DewpointF,Max Humidity, Mean Humidity, Min Humidity, Max Sea Level PressureIn, Mean Sea Level PressureIn, Min Sea Level PressureIn, Max VisibilityMiles, Mean VisibilityMiles, Min VisibilityMiles, Max Wind SpeedMPH, Mean Wind SpeedMPH, Max Gust SpeedMPH,PrecipitationIn, CloudCover, Events, WindDirDegrees
2012-7-1,102,88,73,70,66,55,85,55,28,30.01,29.94,29.86,10,9,7,12,4,21,0.00,3,Rain-Thunderstorm,180
2012-7-2,99,84,70,70,66,64,88,62,32,30.04,30.00,29.94,10,10,6,13,6,20,0.00,5,Rain-Thunderstorm,200
2012-7-3,96,81,67,71,67,64,90,64,41,30.02,29.96,29.89,10,10,10,9,3,,0.00,5,,195
2012-7-4,99,84,70,73,69,66,93,63,34,29.99,29.94,29.89,10,10,10,10,3,,0.00,0,,250
2012-7-5,100,86,73,73,69,62,90,60,28,29.99,29.95,29.91,10,10,10,14,3,20,0.00,2,,235
2012-7-6,100,86,73,71,67,64,78,55,31,29.99,29.96,29.90,10,10,10,8,3,,0.00,0,,160
2012-7-7,103,88,74,72,67,59,84,54,24,29.99,29.94,29.88,10,10,10,8,2,,0.00,2,,256
2012-7-8,97,84,72,75,72,68,97,77,46,30.01,29.93,29.90,10,7,1,18,5,24,0.67,6,Rain-Thunderstorm,285
2012-7-9,80,76,68,72,70,62,100,85,61,30.01,29.98,29.94,10,5,0,10,3,,0.00,6,Fog-Rain,22
2012-7-10,91,80,69,66,61,54,86,56,29,30.04,29.98,29.94,10,10,10,10,5,18,0.00,4,,37
2012-7-11,93,80,66,67,64,58,93,64,32,30.10,30.02,29.97,10,10,10,12,3,,0.00,2,,67
2012-7-12,83,76,69,71,69,66,96,82,61,30.07,30.05,30.01,10,10,10,13,2,,0.21,6,Rain-Thunderstorm,97
2012-7-13,79,74,68,72,70,68,100,87,69,30.09,30.07,30.03,10,10,10,8,5,,0.00,6,Rain,90
2012-7-14,87,77,68,73,71,68,100,85,62,30.14,30.09,30.05,10,9,5,14,4,,0.04,6,Rain,170
2012-7-15,89,80,70,74,71,70,98,80,53,30.17,30.10,30.03,10,10,10,9,5,,0.01,5,Rain,190
2012-7-16,91,80,70,74,72,69,98,76,53,30.09,30.03,29.94,10,10,10,14,4,21,0.00,2,Rain-Thunderstorm,232
2012-7-17,95,82,71,74,71,69,96,69,43,29.99,29.94,29.88,10,10,10,12,5,,0.00,2,,215
2012-7-18,98,86,73,74,71,66,91,67,41,29.98,29.94,29.87,10,10,10,14,4,,0.00,2,Rain-Thunderstorm,230
2012-7-19,99,85,71,74,71,66,96,73,39,29.99,29.91,29.81,10,9,1,26,9,38,0.69,5,Rain-Thunderstorm,215
2012-7-20,88,78,71,73,71,67,95,82,61,30.00,29.93,29.87,10,10,10,12,8,,0.00,6,,290
2012-7-21,86,75,64,66,65,63,93,71,46,30.10,30.04,30.01,10,10,6,12,5,,0.00,1,,20
2012-7-22,91,77,63,69,63,54,99,64,31,30.16,30.10,30.06,10,10,5,8,2,,0.00,1,,68
2012-7-23,95,84,72,73,71,68,94,70,42,30.13,30.07,30.01,10,10,10,12,6,,0.00,0,,219
2012-7-24,97,86,76,76,71,66,81,66,44,30.02,29.95,29.89,10,10,10,20,8,24,0.00,4,Rain-Thunderstorm,239
2012-7-25,101,87,74,74,72,70,91,64,37,29.93,29.87,29.80,10,10,10,13,5,17,0.00,2,,211
2012-7-26,99,88,75,75,72,71,91,68,40,29.86,29.79,29.73,10,10,5,17,9,28,0.04,4,Rain-Thunderstorm,214
2012-7-27,96,82,67,74,69,64,97,74,34,29.96,29.88,29.83,10,9,1,21,8,41,1.23,4,Rain-Thunderstorm,231
2012-7-28,86,76,66,68,66,63,99,74,50,30.06,30.02,29.96,10,10,6,9,4,,0.00,1,,337
2012-7-29,86,74,64,67,62,57,95,67,38,30.10,30.04,29.98,10,10,6,7,2,,0.00,1,,52
2012-7-30,88,76,63,72,65,62,96,67,46,30.00,29.96,29.90,10,10,6,10,3,,0.03,2,Rain,97
2012-7-31,92,80,68,71,69,66,99,73,42,29.94,29.90,29.84,10,9,4,8,4,,0.06,3,Rain,9